Time;durP1;ratioP1;P1;durP2;ratioP2;P2;SDS_P1;SDS_P2;PMS_P1;PMS_P2;Temp;Humidity;BMP_temperature;BMP_pressure;BME280_temperature;BME280_humidity;BME280_pressure;Samples;Min_cycle;Max_cycle;Signal;HPM_P1;HPM_P2
2023/04/29 00:00:55;;;;;;;;;;;;;;;;;;5024679;28;19921;-77
2023/04/29 00:03:21;;;;;;;;;;;;;;;;;;5050161;28;19913;-77
2023/04/29 00:05:46;;;;;;;;;;;;;;;;;;5026667;28;19917;-78
2023/04/29 00:08:12;;;;;;;;;;;;;;;;;;5028143;28;19971;-77
2023/04/29 00:10:38;;;;;;;;;;;;;;;;;;5023664;28;19959;-77
2023/04/29 00:13:03;;;;;;;;;;;;;;;;;;5032371;28;19963;-77
2023/04/29 00:15:29;;;;;;;;;;;;;;;;;;5035449;28;20344;-77
2023/04/29 00:17:54;;;;;;;;;;;;;;;;;;5019663;28;20366;-78
2023/04/29 00:20:20;;;;;;;;;;;;;;;;;;5029469;28;19920;-78
2023/04/29 00:22:45;;;;;;;;;;;;;;;;;;5022753;28;19968;-79
2023/04/29 00:25:11;;;;;;;;;;;;;;;;;;5029410;28;19913;-79
2023/04/29 00:27:36;;;;;;;;;;;;;;;;;;5029409;28;19914;-80
2023/04/29 00:30:02;;;;;;;;;;;;;;;;;;5039269;28;19913;-81
2023/04/29 00:32:28;;;;;;;;;;;;;;;;;;5056990;28;19913;-80
2023/04/29 00:34:54;;;;;;;;;;;;;;;;;;5035318;28;19925;-79
2023/04/29 00:37:19;;;;;;;;;;;;;;;;;;5056086;28;19984;-80
2023/04/29 00:39:44;;;;;;;;;;;;;;;;;;5059848;28;19952;-81
2023/04/29 00:42:10;;;;;;;;;;;;;;;;;;5043598;28;19913;-80
2023/04/29 00:44:36;;;;;;;;;;;;;;;;;;5033687;28;19917;-80
2023/04/29 00:47:01;;;;;;;;;;;;;;;;;;5056071;28;19917;-80
2023/04/29 00:49:26;;;;;;;;;;;;;;;;;;5032501;28;19960;-82
2023/04/29 00:51:55;;;;;;;;;;;;;;;;;;5065755;28;19913;-81
2023/04/29 00:54:23;;;;;;;;;;;;;;;;;;5050130;28;19924;-82
2023/04/29 00:56:48;;;;;;;;;;;;;;;;;;5030881;28;19913;-79
2023/04/29 00:59:15;;;;;;;;;;;;;;;;;;5025287;28;19976;-81
2023/04/29 01:01:41;;;;;;;;;;;;;;;;;;5027526;28;19920;-82
2023/04/29 01:04:10;;;;;;;;;;;;;;;;;;5045018;28;19913;-82
2023/04/29 01:06:38;;;;;;;;;;;;;;;;;;5028437;28;19932;-82
2023/04/29 01:09:03;;;;;;;;;;;;;;;;;;5051763;28;19936;-82
2023/04/29 01:11:29;;;;;;;;;;;;;;;;;;5052628;28;20059;-80
2023/04/29 01:13:55;;;;;;;;;;;;;;;;;;5034442;28;20288;-83
2023/04/29 01:16:20;;;;;;;;;;;;;;;;;;5016872;28;19913;-78
2023/04/29 01:18:46;;;;;;;;;;;;;;;;;;5032175;28;20342;-78
2023/04/29 01:21:15;;;;;;;;;;;;;;;;;;5048577;28;19959;-78
2023/04/29 01:23:40;;;;;;;;;;;;;;;;;;5015761;28;20351;-78
2023/04/29 01:26:07;;;;;;;;;;;;;;;;;;5031947;28;20391;-78
2023/04/29 01:28:55;;;;;;;;;;;;;;;;;;5044518;28;19913;-78
2023/04/29 01:31:20;;;;;;;;;;;;;;;;;;5043455;28;19968;-78
2023/04/29 01:33:46;;;;;;;;;;;;;;;;;;5032410;28;19917;-78
2023/04/29 01:36:12;;;;;;;;;;;;;;;;;;5003191;28;20296;-79
2023/04/29 01:38:37;;;;;;;;;;;;;;;;;;5042754;28;20402;-78
2023/04/29 01:41:03;;;;;;;;;;;;;;;;;;5031570;28;19917;-78
2023/04/29 01:43:28;;;;;;;;;;;;;;;;;;5042993;28;20320;-78
2023/04/29 01:45:55;;;;;;;;;;;;;;;;;;5020388;28;19920;-78
2023/04/29 01:48:20;;;;;;;;;;;;;;;;;;5042395;28;19921;-78
2023/04/29 01:50:46;;;;;;;;;;;;;;;;;;5040397;28;19917;-79
2023/04/29 01:53:14;;;;;;;;;;;;;;;;;;5047718;28;19913;-78
2023/04/29 01:55:42;;;;;;;;;;;;;;;;;;5040858;28;19925;-78
2023/04/29 01:58:46;;;;;;;;;;;;;;;;;;5026656;28;19960;-78
2023/04/29 02:01:34;;;;;;;;;;;;;;;;;;5017517;28;19920;-78
2023/04/29 02:04:00;;;;;;;;;;;;;;;;;;5022259;28;19914;-77
2023/04/29 02:06:26;;;;;;;;;;;;;;;;;;5041173;28;20344;-78
2023/04/29 02:08:56;;;;;;;;;;;;;;;;;;4998962;28;19917;-78
2023/04/29 02:11:21;;;;;;;;;;;;;;;;;;5027129;28;20296;-78
2023/04/29 02:13:47;;;;;;;;;;;;;;;;;;5036157;28;19960;-78
2023/04/29 02:16:13;;;;;;;;;;;;;;;;;;5019921;28;19918;-78
2023/04/29 02:18:48;;;;;;;;;;;;;;;;;;5045103;28;20339;-78
2023/04/29 02:21:13;;;;;;;;;;;;;;;;;;5031533;28;19913;-78
2023/04/29 02:23:39;;;;;;;;;;;;;;;;;;5024937;28;19920;-78
2023/04/29 02:26:05;;;;;;;;;;;;;;;;;;5044329;28;19913;-78
2023/04/29 02:28:31;;;;;;;;;;;;;;;;;;5041365;28;19913;-78
2023/04/29 02:30:56;;;;;;;;;;;;;;;;;;5047004;28;19923;-77
2023/04/29 02:33:22;;;;;;;;;;;;;;;;;;5047955;28;20407;-78
2023/04/29 02:35:47;;;;;;;;;;;;;;;;;;5047681;28;19917;-78
2023/04/29 02:38:15;;;;;;;;;;;;;;;;;;5047726;28;19920;-78
2023/04/29 02:40:40;;;;;;;;;;;;;;;;;;5047834;28;20356;-78
2023/04/29 02:43:05;;;;;;;;;;;;;;;;;;5048581;28;19991;-77
2023/04/29 02:45:31;;;;;;;;;;;;;;;;;;5034617;28;19913;-78
2023/04/29 02:47:56;;;;;;;;;;;;;;;;;;5036558;28;20392;-78
2023/04/29 02:50:22;;;;;;;;;;;;;;;;;;5037243;28;19920;-78
2023/04/29 02:52:48;;;;;;;;;;;;;;;;;;5052145;28;19920;-78
2023/04/29 02:55:13;;;;;;;;;;;;;;;;;;5035366;28;20379;-78
2023/04/29 02:57:40;;;;;;;;;;;;;;;;;;5051672;28;20418;-77
2023/04/29 03:00:05;;;;;;;;;;;;;;;;;;5052685;28;19920;-78
2023/04/29 03:02:30;;;;;;;;;;;;;;;;;;5036170;28;19921;-77
2023/04/29 03:04:57;;;;;;;;;;;;;;;;;;5018459;28;19917;-78
2023/04/29 03:07:23;;;;;;;;;;;;;;;;;;5036422;28;19991;-77
2023/04/29 03:09:48;;;;;;;;;;;;;;;;;;5034931;28;20020;-78
2023/04/29 03:12:15;;;;;;;;;;;;;;;;;;5034702;28;19913;-77
2023/04/29 03:14:40;;;;;;;;;;;;;;;;;;5051469;28;19917;-77
2023/04/29 03:17:06;;;;;;;;;;;;;;;;;;5035468;28;19924;-77
2023/04/29 03:19:31;;;;;;;;;;;;;;;;;;5051235;28;20000;-78
2023/04/29 03:21:58;;;;;;;;;;;;;;;;;;5050007;28;20099;-77
2023/04/29 03:24:23;;;;;;;;;;;;;;;;;;5052715;28;20417;-77
2023/04/29 03:26:49;;;;;;;;;;;;;;;;;;5037006;28;19913;-78
2023/04/29 03:29:14;;;;;;;;;;;;;;;;;;5052499;28;20371;-78
2023/04/29 03:31:40;;;;;;;;;;;;;;;;;;5052747;28;19913;-78
2023/04/29 03:34:05;;;;;;;;;;;;;;;;;;5052188;28;20183;-78
2023/04/29 03:36:34;;;;;;;;;;;;;;;;;;5054988;28;19913;-78
2023/04/29 03:39:03;;;;;;;;;;;;;;;;;;5043404;28;19913;-77
2023/04/29 03:41:29;;;;;;;;;;;;;;;;;;5061488;28;19928;-79
2023/04/29 03:43:59;;;;;;;;;;;;;;;;;;5044455;28;19917;-78
2023/04/29 03:46:26;;;;;;;;;;;;;;;;;;5047369;28;19923;-78
2023/04/29 03:48:54;;;;;;;;;;;;;;;;;;5059320;28;20011;-78
2023/04/29 03:51:20;;;;;;;;;;;;;;;;;;5023038;28;19936;-78
2023/04/29 03:53:46;;;;;;;;;;;;;;;;;;5055253;28;19917;-78
2023/04/29 03:56:11;;;;;;;;;;;;;;;;;;5052841;28;19917;-79
2023/04/29 03:58:37;;;;;;;;;;;;;;;;;;5055877;28;20590;-77
2023/04/29 04:01:02;;;;;;;;;;;;;;;;;;5018974;28;19920;-77
2023/04/29 04:03:35;;;;;;;;;;;;;;;;;;5051572;28;19944;-78
2023/04/29 04:06:00;;;;;;;;;;;;;;;;;;5050917;28;20399;-78
2023/04/29 04:08:26;;;;;;;;;;;;;;;;;;5050053;28;20402;-77
2023/04/29 04:11:04;;;;;;;;;;;;;;;;;;5033278;28;20410;-78
2023/04/29 04:13:45;;;;;;;;;;;;;;;;;;5029113;28;19920;-77
2023/04/29 04:16:11;;;;;;;;;;;;;;;;;;5032918;28;20292;-78
2023/04/29 04:18:37;;;;;;;;;;;;;;;;;;5049312;28;19913;-77
2023/04/29 04:21:03;;;;;;;;;;;;;;;;;;5033796;28;20003;-77
2023/04/29 04:23:29;;;;;;;;;;;;;;;;;;5041965;28;19913;-77
2023/04/29 04:25:54;;;;;;;;;;;;;;;;;;5061839;28;19913;-77
2023/04/29 04:28:40;;;;;;;;;;;;;;;;;;5030031;28;19913;-80
2023/04/29 04:31:10;;;;;;;;;;;;;;;;;;5031995;28;19914;-77
2023/04/29 04:33:36;;;;;;;;;;;;;;;;;;5042511;28;20428;-78
2023/04/29 04:36:01;;;;;;;;;;;;;;;;;;5039006;28;19925;-77
2023/04/29 04:38:27;;;;;;;;;;;;;;;;;;5057830;28;20009;-77
2023/04/29 04:40:53;;;;;;;;;;;;;;;;;;5046556;28;19913;-77
2023/04/29 04:43:27;;;;;;;;;;;;;;;;;;5038024;28;19988;-77
2023/04/29 04:45:53;;;;;;;;;;;;;;;;;;5044083;28;19948;-77
2023/04/29 04:48:18;;;;;;;;;;;;;;;;;;5016148;28;20364;-77
2023/04/29 04:50:47;;;;;;;;;;;;;;;;;;5042804;28;19914;-77
2023/04/29 04:53:14;;;;;;;;;;;;;;;;;;5022127;28;19959;-78
2023/04/29 04:55:49;;;;;;;;;;;;;;;;;;5018191;28;19927;-78
2023/04/29 04:58:15;;;;;;;;;;;;;;;;;;5037193;28;20012;-77
2023/04/29 05:00:40;;;;;;;;;;;;;;;;;;5016785;28;19917;-77
2023/04/29 05:03:06;;;;;;;;;;;;;;;;;;5040682;28;19972;-77
2023/04/29 05:05:31;;;;;;;;;;;;;;;;;;5040735;28;19917;-78
2023/04/29 05:07:56;;;;;;;;;;;;;;;;;;5026893;28;20355;-77
2023/04/29 05:10:29;;;;;;;;;;;;;;;;;;5031851;28;20008;-77
2023/04/29 05:12:58;;;;;;;;;;;;;;;;;;5026229;28;19913;-77
2023/04/29 05:15:26;;;;;;;;;;;;;;;;;;5048786;28;19917;-77
2023/04/29 05:17:53;;;;;;;;;;;;;;;;;;5032307;28;19913;-77
2023/04/29 05:20:22;;;;;;;;;;;;;;;;;;5048581;28;20272;-77
2023/04/29 05:22:47;;;;;;;;;;;;;;;;;;5048559;28;20380;-77
2023/04/29 05:25:13;;;;;;;;;;;;;;;;;;5048508;28;19940;-76
2023/04/29 05:27:39;;;;;;;;;;;;;;;;;;5032057;28;19952;-78
2023/04/29 05:30:08;;;;;;;;;;;;;;;;;;5047026;28;19913;-77
2023/04/29 05:32:33;;;;;;;;;;;;;;;;;;5031501;28;20294;-77
2023/04/29 05:34:59;;;;;;;;;;;;;;;;;;5048205;28;19917;-77
2023/04/29 05:37:29;;;;;;;;;;;;;;;;;;5048258;28;20343;-77
2023/04/29 05:40:15;;;;;;;;;;;;;;;;;;5045058;28;19913;-78
2023/04/29 05:42:41;;;;;;;;;;;;;;;;;;5048032;28;19913;-77
2023/04/29 05:45:06;;;;;;;;;;;;;;;;;;5048122;28;19917;-77
2023/04/29 05:47:32;;;;;;;;;;;;;;;;;;5030490;28;19971;-78
2023/04/29 05:49:57;;;;;;;;;;;;;;;;;;5030827;28;20292;-77
2023/04/29 05:52:23;;;;;;;;;;;;;;;;;;5032343;28;19956;-77
2023/04/29 05:54:49;;;;;;;;;;;;;;;;;;5043271;28;20000;-78
2023/04/29 05:57:14;;;;;;;;;;;;;;;;;;5047824;28;19982;-77
2023/04/29 05:59:39;;;;;;;;;;;;;;;;;;5027900;28;20008;-75
2023/04/29 06:02:05;;;;;;;;;;;;;;;;;;5019261;28;19979;-78
2023/04/29 06:04:32;;;;;;;;;;;;;;;;;;5034839;22;19914;-78
2023/04/29 06:07:16;;;;;;;;;;;;;;;;;;4987563;28;20373;-78
2023/04/29 06:09:53;;;;;;;;;;;;;;;;;;4991609;28;19914;-79
2023/04/29 06:12:18;;;;;;;;;;;;;;;;;;4991817;28;20092;-77
2023/04/29 06:14:45;;;;;;;;;;;;;;;;;;4988122;28;19914;-78
2023/04/29 06:17:11;;;;;;;;;;;;;;;;;;4952480;28;20017;-78
2023/04/29 06:19:36;;;;;;;;;;;;;;;;;;4988002;28;19929;-77
2023/04/29 06:22:02;;;;;;;;;;;;;;;;;;4988542;28;20001;-77
2023/04/29 06:24:28;;;;;;;;;;;;;;;;;;4985176;28;19922;-76
2023/04/29 06:26:55;;;;;;;;;;;;;;;;;;4982278;28;19993;-78
2023/04/29 06:29:21;;;;;;;;;;;;;;;;;;4969463;28;19957;-78
2023/04/29 06:31:46;;;;;;;;;;;;;;;;;;4972479;28;19914;-77
2023/04/29 06:34:12;;;;;;;;;;;;;;;;;;4973861;28;20300;-78
2023/04/29 06:36:48;;;;;;;;;;;;;;;;;;4985840;28;19919;-77
2023/04/29 06:39:32;;;;;;;;;;;;;;;;;;4974645;28;20456;-77
2023/04/29 06:42:14;;;;;;;;;;;;;;;;;;4990527;28;20298;-78
2023/04/29 06:45:02;;;;;;;;;;;;;;;;;;4981055;28;19914;-78
2023/04/29 06:47:39;;;;;;;;;;;;;;;;;;4976434;28;19918;-78
2023/04/29 06:50:11;;;;;;;;;;;;;;;;;;4974271;28;19915;-79
2023/04/29 06:52:37;;;;;;;;;;;;;;;;;;4976154;28;19914;-78
2023/04/29 06:55:02;;;;;;;;;;;;;;;;;;4991295;28;19961;-79
2023/04/29 06:57:28;;;;;;;;;;;;;;;;;;4975322;28;19913;-76
2023/04/29 06:59:53;;;;;;;;;;;;;;;;;;4990988;28;19961;-78
2023/04/29 07:02:19;;;;;;;;;;;;;;;;;;4978743;28;19918;-79
2023/04/29 07:04:47;;;;;;;;;;;;;;;;;;4977911;28;19914;-79
2023/04/29 07:07:14;;;;;;;;;;;;;;;;;;4993824;28;19924;-78
2023/04/29 07:09:40;;;;;;;;;;;;;;;;;;5013519;28;20378;-77
2023/04/29 07:15:01;;;;;;;;;;;;;;;;;;5003435;28;19941;-77
2023/04/29 07:17:28;;;;;;;;;;;;;;;;;;5003676;28;19913;-78
2023/04/29 07:19:54;;;;;;;;;;;;;;;;;;5010358;28;19914;-77
2023/04/29 07:22:19;;;;;;;;;;;;;;;;;;4983962;28;19917;-79
2023/04/29 07:24:45;;;;;;;;;;;;;;;;;;4994320;28;20288;-79
2023/04/29 07:27:10;;;;;;;;;;;;;;;;;;5007844;28;20343;-77
2023/04/29 07:29:37;;;;;;;;;;;;;;;;;;4991789;28;19914;-78
2023/04/29 07:32:02;;;;;;;;;;;;;;;;;;4994934;28;19914;-78
2023/04/29 07:34:28;;;;;;;;;;;;;;;;;;5011243;28;20295;-78
2023/04/29 07:36:55;;;;;;;;;;;;;;;;;;5011403;28;19972;-78
2023/04/29 07:39:20;;;;;;;;;;;;;;;;;;4992902;28;20007;-79
2023/04/29 07:41:47;;;;;;;;;;;;;;;;;;4991632;28;19976;-79
2023/04/29 07:44:13;;;;;;;;;;;;;;;;;;4975652;28;20361;-78
2023/04/29 07:46:39;;;;;;;;;;;;;;;;;;4959678;28;19918;-77
2023/04/29 07:49:05;;;;;;;;;;;;;;;;;;4975457;28;20388;-79
2023/04/29 07:51:31;;;;;;;;;;;;;;;;;;4991264;28;19954;-80
2023/04/29 07:53:57;;;;;;;;;;;;;;;;;;4991045;28;19918;-77
2023/04/29 07:56:23;;;;;;;;;;;;;;;;;;4976360;28;19918;-77
2023/04/29 07:58:48;;;;;;;;;;;;;;;;;;4976391;28;20275;-78
2023/04/29 08:01:14;;;;;;;;;;;;;;;;;;4967488;28;19961;-79
2023/04/29 08:03:40;;;;;;;;;;;;;;;;;;4983635;28;19996;-78
2023/04/29 08:06:06;;;;;;;;;;;;;;;;;;5001703;28;19918;-78
2023/04/29 08:08:33;;;;;;;;;;;;;;;;;;4958741;28;20464;-76
2023/04/29 08:10:58;;;;;;;;;;;;;;;;;;4987025;28;20016;-78
2023/04/29 08:13:24;;;;;;;;;;;;;;;;;;4972780;28;19914;-78
2023/04/29 08:15:49;;;;;;;;;;;;;;;;;;4984197;28;20332;-77
2023/04/29 08:18:15;;;;;;;;;;;;;;;;;;4975434;28;20397;-78
2023/04/29 08:20:40;;;;;;;;;;;;;;;;;;4973993;28;19914;-79
2023/04/29 08:23:06;;;;;;;;;;;;;;;;;;4990261;28;20329;-78
2023/04/29 08:25:32;;;;;;;;;;;;;;;;;;4957945;28;19917;-79
2023/04/29 08:27:57;;;;;;;;;;;;;;;;;;4975840;28;19918;-79
2023/04/29 08:30:23;;;;;;;;;;;;;;;;;;4990440;28;19960;-76
2023/04/29 08:32:48;;;;;;;;;;;;;;;;;;4975701;28;20340;-78
2023/04/29 08:35:14;;;;;;;;;;;;;;;;;;4975651;28;20436;-77
2023/04/29 08:37:39;;;;;;;;;;;;;;;;;;4975394;28;20352;-77
2023/04/29 08:40:05;;;;;;;;;;;;;;;;;;4987091;28;19918;-79
2023/04/29 08:42:30;;;;;;;;;;;;;;;;;;4973635;28;20277;-77
2023/04/29 08:44:56;;;;;;;;;;;;;;;;;;4974567;28;19968;-77
2023/04/29 08:47:22;;;;;;;;;;;;;;;;;;4974639;28;19921;-78
2023/04/29 08:49:47;;;;;;;;;;;;;;;;;;4967540;28;19922;-78
2023/04/29 08:52:12;;;;;;;;;;;;;;;;;;4986526;28;20440;-77
2023/04/29 08:54:38;;;;;;;;;;;;;;;;;;4974527;28;19917;-77
2023/04/29 08:57:03;;;;;;;;;;;;;;;;;;4976125;28;20017;-76
2023/04/29 08:59:29;;;;;;;;;;;;;;;;;;4957610;28;19918;-76
2023/04/29 09:01:54;;;;;;;;;;;;;;;;;;4973864;28;20372;-77
2023/04/29 09:04:19;;;;;;;;;;;;;;;;;;4974895;28;19914;-76
2023/04/29 09:06:45;;;;;;;;;;;;;;;;;;4974948;28;20361;-76
2023/04/29 09:09:13;;;;;;;;;;;;;;;;;;4975084;28;19914;-77
2023/04/29 09:11:39;;;;;;;;;;;;;;;;;;4975052;28;19946;-77
2023/04/29 09:14:05;;;;;;;;;;;;;;;;;;4992347;28;20288;-76
2023/04/29 09:16:30;;;;;;;;;;;;;;;;;;5009793;28;19913;-78
2023/04/29 09:18:55;;;;;;;;;;;;;;;;;;4994846;28;20000;-77
2023/04/29 09:21:21;;;;;;;;;;;;;;;;;;4993252;28;19992;-77
2023/04/29 09:23:46;;;;;;;;;;;;;;;;;;4993380;28;19913;-78
2023/04/29 09:26:12;;;;;;;;;;;;;;;;;;4994130;28;20465;-76
2023/04/29 09:28:40;;;;;;;;;;;;;;;;;;4994158;28;20120;-77
2023/04/29 09:31:06;;;;;;;;;;;;;;;;;;4995728;28;19922;-77
2023/04/29 09:33:32;;;;;;;;;;;;;;;;;;4988080;28;19941;-75
2023/04/29 09:35:58;;;;;;;;;;;;;;;;;;4975051;28;19918;-77
2023/04/29 09:38:23;;;;;;;;;;;;;;;;;;4983104;28;19956;-76
2023/04/29 09:40:50;;;;;;;;;;;;;;;;;;4986236;28;20274;-77
2023/04/29 09:43:15;;;;;;;;;;;;;;;;;;5003766;28;19972;-77
2023/04/29 09:45:41;;;;;;;;;;;;;;;;;;4984341;28;19922;-77
2023/04/29 09:48:07;;;;;;;;;;;;;;;;;;4984527;28;19910;-77
2023/04/29 09:50:33;;;;;;;;;;;;;;;;;;4975706;28;19914;-77
2023/04/29 09:52:58;;;;;;;;;;;;;;;;;;4975001;28;19976;-76
2023/04/29 09:55:25;;;;;;;;;;;;;;;;;;4980209;28;19918;-77
2023/04/29 09:57:51;;;;;;;;;;;;;;;;;;4987212;28;19958;-76
2023/04/29 10:00:16;;;;;;;;;;;;;;;;;;4970584;28;19914;-76
2023/04/29 10:02:42;;;;;;;;;;;;;;;;;;4958195;28;19915;-77
2023/04/29 10:05:07;;;;;;;;;;;;;;;;;;4971330;28;19915;-77
2023/04/29 10:07:33;;;;;;;;;;;;;;;;;;4979798;28;20412;-77
2023/04/29 10:09:58;;;;;;;;;;;;;;;;;;4973937;28;20362;-77
2023/04/29 10:12:24;;;;;;;;;;;;;;;;;;4974129;28;20385;-83
2023/04/29 10:14:50;;;;;;;;;;;;;;;;;;4990229;28;19926;-83
2023/04/29 10:17:16;;;;;;;;;;;;;;;;;;4974122;28;20460;-84
2023/04/29 10:19:41;;;;;;;;;;;;;;;;;;4975355;28;19914;-84
2023/04/29 10:22:06;;;;;;;;;;;;;;;;;;4975991;28;20480;-84
2023/04/29 10:24:32;;;;;;;;;;;;;;;;;;4975441;28;19977;-79
2023/04/29 10:26:58;;;;;;;;;;;;;;;;;;4988649;28;20387;-81
2023/04/29 10:29:23;;;;;;;;;;;;;;;;;;4973598;28;20451;-81
2023/04/29 10:31:50;;;;;;;;;;;;;;;;;;4974532;28;19940;-81
2023/04/29 10:34:15;;;;;;;;;;;;;;;;;;4957383;28;19915;-80
2023/04/29 10:36:40;;;;;;;;;;;;;;;;;;4974017;28;19914;-81
2023/04/29 10:39:06;;;;;;;;;;;;;;;;;;4973035;28;20301;-80
2023/04/29 10:41:32;;;;;;;;;;;;;;;;;;4975642;28;20294;-81
2023/04/29 10:43:57;;;;;;;;;;;;;;;;;;4986290;28;19969;-81
2023/04/29 10:46:22;;;;;;;;;;;;;;;;;;4985375;28;19921;-80
2023/04/29 10:48:48;;;;;;;;;;;;;;;;;;4969086;28;20304;-81
2023/04/29 10:51:13;;;;;;;;;;;;;;;;;;4975569;28;19914;-80
2023/04/29 10:53:39;;;;;;;;;;;;;;;;;;4980855;28;19918;-79
2023/04/29 10:56:05;;;;;;;;;;;;;;;;;;4977068;28;19925;-79
2023/04/29 10:58:30;;;;;;;;;;;;;;;;;;4975815;28;20018;-82
2023/04/29 11:00:55;;;;;;;;;;;;;;;;;;4974651;28;20289;-83
2023/04/29 11:03:21;;;;;;;;;;;;;;;;;;4990228;28;19914;-82
2023/04/29 11:05:46;;;;;;;;;;;;;;;;;;4972121;28;19919;-78
2023/04/29 11:08:12;;;;;;;;;;;;;;;;;;4966811;28;20025;-80
2023/04/29 11:10:37;;;;;;;;;;;;;;;;;;4959263;28;20391;-78
2023/04/29 11:13:03;;;;;;;;;;;;;;;;;;4974987;28;19914;-79
2023/04/29 11:15:28;;;;;;;;;;;;;;;;;;4988407;28;19919;-78
2023/04/29 11:17:53;;;;;;;;;;;;;;;;;;4976880;28;20389;-77
2023/04/29 11:20:19;;;;;;;;;;;;;;;;;;4976223;28;19922;-79
2023/04/29 11:22:44;;;;;;;;;;;;;;;;;;4975044;28;19937;-78
2023/04/29 11:25:10;;;;;;;;;;;;;;;;;;4975850;28;19921;-78
2023/04/29 11:27:36;;;;;;;;;;;;;;;;;;4975761;28;20293;-77
2023/04/29 11:30:02;;;;;;;;;;;;;;;;;;4974730;28;19914;-78
2023/04/29 11:32:28;;;;;;;;;;;;;;;;;;4976565;28;19914;-80
2023/04/29 11:34:53;;;;;;;;;;;;;;;;;;4976038;28;20324;-79
2023/04/29 11:37:19;;;;;;;;;;;;;;;;;;4976032;28;20448;-79
2023/04/29 11:39:44;;;;;;;;;;;;;;;;;;4987707;28;20301;-78
2023/04/29 11:42:10;;;;;;;;;;;;;;;;;;4980203;28;20364;-78
2023/04/29 11:44:35;;;;;;;;;;;;;;;;;;4987042;28;19918;-86
2023/04/29 11:47:01;;;;;;;;;;;;;;;;;;4980621;28;19915;-86
2023/04/29 11:49:26;;;;;;;;;;;;;;;;;;4959843;28;19918;-81
2023/04/29 11:51:51;;;;;;;;;;;;;;;;;;4957199;28;20408;-82
2023/04/29 11:54:17;;;;;;;;;;;;;;;;;;4981673;28;19914;-82
2023/04/29 11:56:42;;;;;;;;;;;;;;;;;;4976164;28;20392;-85
2023/04/29 11:59:08;;;;;;;;;;;;;;;;;;4974724;28;20068;-85
2023/04/29 12:01:33;;;;;;;;;;;;;;;;;;4974966;28;19918;-86
2023/04/29 12:03:59;;;;;;;;;;;;;;;;;;4976154;28;19925;-83
2023/04/29 12:06:25;;;;;;;;;;;;;;;;;;5024186;23;19925;-78
2023/04/29 12:08:50;;;;;;;;;;;;;;;;;;5033067;28;20332;-79
2023/04/29 12:11:16;;;;;;;;;;;;;;;;;;5033812;28;19913;-78
2023/04/29 12:13:41;;;;;;;;;;;;;;;;;;5032597;28;19920;-78
2023/04/29 12:16:07;;;;;;;;;;;;;;;;;;5033357;28;19924;-79
2023/04/29 12:18:32;;;;;;;;;;;;;;;;;;5034096;28;19917;-82
2023/04/29 12:20:57;;;;;;;;;;;;;;;;;;5032691;28;19919;-78
2023/04/29 12:23:23;;;;;;;;;;;;;;;;;;5034022;28;19956;-78
2023/04/29 12:25:49;;;;;;;;;;;;;;;;;;5032449;28;19921;-78
2023/04/29 12:28:14;;;;;;;;;;;;;;;;;;5033791;28;19921;-78
2023/04/29 12:30:40;;;;;;;;;;;;;;;;;;5032322;28;19917;-77
2023/04/29 12:33:05;;;;;;;;;;;;;;;;;;5033930;28;19910;-77
2023/04/29 12:35:30;;;;;;;;;;;;;;;;;;5032418;28;19967;-77
2023/04/29 12:37:56;;;;;;;;;;;;;;;;;;5033705;28;20387;-77
2023/04/29 12:40:22;;;;;;;;;;;;;;;;;;5032147;28;19913;-77
2023/04/29 12:42:47;;;;;;;;;;;;;;;;;;5033685;28;20003;-76
2023/04/29 12:45:13;;;;;;;;;;;;;;;;;;5033723;28;20414;-76
2023/04/29 12:47:38;;;;;;;;;;;;;;;;;;5011636;28;20361;-77
2023/04/29 12:50:04;;;;;;;;;;;;;;;;;;5017255;28;20384;-76
2023/04/29 12:52:29;;;;;;;;;;;;;;;;;;5026362;28;19913;-76
2023/04/29 12:54:54;;;;;;;;;;;;;;;;;;5024225;28;20312;-77
2023/04/29 12:57:21;;;;;;;;;;;;;;;;;;5033095;28;19974;-77
2023/04/29 12:59:46;;;;;;;;;;;;;;;;;;5033009;28;19971;-77
2023/04/29 13:02:11;;;;;;;;;;;;;;;;;;5033279;28;20376;-77
2023/04/29 13:04:37;;;;;;;;;;;;;;;;;;5028250;28;19913;-77
2023/04/29 13:07:03;;;;;;;;;;;;;;;;;;5031791;28;20334;-77
2023/04/29 13:09:29;;;;;;;;;;;;;;;;;;5031473;28;20299;-78
2023/04/29 13:11:54;;;;;;;;;;;;;;;;;;5031618;28;19953;-77
2023/04/29 13:14:20;;;;;;;;;;;;;;;;;;5035616;28;19920;-77
2023/04/29 13:16:45;;;;;;;;;;;;;;;;;;5041814;28;20387;-78
2023/04/29 13:19:11;;;;;;;;;;;;;;;;;;5032898;28;19967;-78
2023/04/29 13:21:36;;;;;;;;;;;;;;;;;;5032423;28;20487;-77
2023/04/29 13:24:02;;;;;;;;;;;;;;;;;;5031502;28;19920;-77
2023/04/29 13:26:27;;;;;;;;;;;;;;;;;;5032492;28;19924;-77
2023/04/29 13:28:52;;;;;;;;;;;;;;;;;;5031601;28;19917;-76
2023/04/29 13:31:18;;;;;;;;;;;;;;;;;;5032854;28;19948;-77
2023/04/29 13:33:44;;;;;;;;;;;;;;;;;;5032984;28;20368;-78
2023/04/29 13:36:09;;;;;;;;;;;;;;;;;;5032944;28;19917;-79
2023/04/29 13:38:35;;;;;;;;;;;;;;;;;;5033307;28;19919;-78
2023/04/29 13:41:00;;;;;;;;;;;;;;;;;;5034111;28;19914;-78
2023/04/29 13:43:25;;;;;;;;;;;;;;;;;;5037338;28;19961;-78
2023/04/29 13:45:51;;;;;;;;;;;;;;;;;;5033729;28;20376;-77
2023/04/29 13:48:17;;;;;;;;;;;;;;;;;;5037454;28;19913;-76
2023/04/29 13:50:44;;;;;;;;;;;;;;;;;;5040509;28;19917;-78
2023/04/29 13:53:09;;;;;;;;;;;;;;;;;;5042583;28;19940;-78
2023/04/29 13:55:34;;;;;;;;;;;;;;;;;;5023122;28;19921;-77
2023/04/29 13:58:00;;;;;;;;;;;;;;;;;;5033363;28;19952;-78
2023/04/29 14:00:28;;;;;;;;;;;;;;;;;;5031774;28;21522;-77
2023/04/29 14:02:53;;;;;;;;;;;;;;;;;;5032234;28;19939;-77
2023/04/29 14:05:19;;;;;;;;;;;;;;;;;;5029088;28;20330;-78
2023/04/29 14:07:44;;;;;;;;;;;;;;;;;;5014780;28;19976;-77
2023/04/29 14:10:10;;;;;;;;;;;;;;;;;;5031061;28;19920;-78
2023/04/29 14:12:35;;;;;;;;;;;;;;;;;;5032436;28;19913;-77
2023/04/29 14:15:01;;;;;;;;;;;;;;;;;;5032208;28;19918;-77
2023/04/29 14:17:26;;;;;;;;;;;;;;;;;;5032284;28;20380;-79
2023/04/29 14:19:51;;;;;;;;;;;;;;;;;;5032153;28;19920;-78
2023/04/29 14:22:17;;;;;;;;;;;;;;;;;;5019964;28;19917;-78
2023/04/29 14:24:42;;;;;;;;;;;;;;;;;;5029298;28;20352;-77
2023/04/29 14:27:08;;;;;;;;;;;;;;;;;;4994328;28;19913;-77
2023/04/29 14:29:33;;;;;;;;;;;;;;;;;;5021999;28;20000;-76
2023/04/29 14:31:58;;;;;;;;;;;;;;;;;;5032252;28;19956;-77
2023/04/29 14:34:24;;;;;;;;;;;;;;;;;;5030357;28;19924;-77
2023/04/29 14:36:50;;;;;;;;;;;;;;;;;;5030865;28;19920;-78
2023/04/29 14:39:15;;;;;;;;;;;;;;;;;;5026092;28;19946;-78
2023/04/29 14:41:41;;;;;;;;;;;;;;;;;;5040972;28;19913;-79
2023/04/29 14:44:06;;;;;;;;;;;;;;;;;;5033564;28;19909;-75
2023/04/29 14:46:32;;;;;;;;;;;;;;;;;;5034426;28;20532;-78
2023/04/29 14:48:57;;;;;;;;;;;;;;;;;;5019990;28;19913;-77
2023/04/29 14:51:23;;;;;;;;;;;;;;;;;;5039370;28;19917;-80
2023/04/29 14:53:49;;;;;;;;;;;;;;;;;;5048838;28;19917;-78
2023/04/29 14:56:14;;;;;;;;;;;;;;;;;;5047567;28;19917;-79
2023/04/29 14:58:40;;;;;;;;;;;;;;;;;;5040650;28;20360;-79
2023/04/29 15:01:05;;;;;;;;;;;;;;;;;;5021631;28;19913;-77
2023/04/29 15:03:30;;;;;;;;;;;;;;;;;;5041896;28;19913;-78
2023/04/29 15:05:56;;;;;;;;;;;;;;;;;;5040281;28;19917;-79
2023/04/29 15:08:22;;;;;;;;;;;;;;;;;;5038544;28;19999;-79
2023/04/29 15:10:48;;;;;;;;;;;;;;;;;;5035982;28;20384;-78
2023/04/29 15:13:14;;;;;;;;;;;;;;;;;;5030898;28;19913;-79
2023/04/29 15:15:39;;;;;;;;;;;;;;;;;;5035486;28;20020;-77
2023/04/29 15:18:06;;;;;;;;;;;;;;;;;;5032861;28;20359;-77
2023/04/29 15:20:31;;;;;;;;;;;;;;;;;;5030305;28;19913;-78
2023/04/29 15:22:57;;;;;;;;;;;;;;;;;;5060025;28;19919;-79
2023/04/29 15:25:22;;;;;;;;;;;;;;;;;;5034002;28;19924;-78
2023/04/29 15:27:47;;;;;;;;;;;;;;;;;;5035442;28;20258;-79
2023/04/29 15:30:13;;;;;;;;;;;;;;;;;;5035111;28;19913;-78
2023/04/29 15:32:38;;;;;;;;;;;;;;;;;;5030298;28;19914;-78
2023/04/29 15:35:05;;;;;;;;;;;;;;;;;;5033465;28;19917;-79
2023/04/29 15:37:31;;;;;;;;;;;;;;;;;;5033916;28;19920;-79
2023/04/29 15:39:57;;;;;;;;;;;;;;;;;;5034996;28;19913;-79
2023/04/29 15:42:25;;;;;;;;;;;;;;;;;;5034119;28;19913;-79
2023/04/29 15:44:51;;;;;;;;;;;;;;;;;;5035530;28;19983;-80
2023/04/29 15:47:16;;;;;;;;;;;;;;;;;;5033964;28;20407;-79
2023/04/29 15:49:41;;;;;;;;;;;;;;;;;;5034879;28;19913;-80
2023/04/29 15:52:07;;;;;;;;;;;;;;;;;;5034461;28;19997;-80
2023/04/29 15:54:32;;;;;;;;;;;;;;;;;;5035165;28;19961;-79
2023/04/29 15:56:58;;;;;;;;;;;;;;;;;;5036014;28;20380;-83
2023/04/29 15:59:23;;;;;;;;;;;;;;;;;;5035269;28;19921;-81
2023/04/29 16:01:49;;;;;;;;;;;;;;;;;;5033818;28;19913;-82
2023/04/29 16:04:15;;;;;;;;;;;;;;;;;;5035092;28;19914;-81
2023/04/29 16:06:41;;;;;;;;;;;;;;;;;;5033124;28;19971;-81
2023/04/29 16:09:06;;;;;;;;;;;;;;;;;;5016741;28;19959;-82
2023/04/29 16:11:32;;;;;;;;;;;;;;;;;;5016537;28;19916;-82
2023/04/29 16:13:58;;;;;;;;;;;;;;;;;;5016973;28;20036;-81
2023/04/29 16:16:29;;;;;;;;;;;;;;;;;;5034384;28;19917;-81
2023/04/29 16:18:56;;;;;;;;;;;;;;;;;;5017153;28;19959;-81
2023/04/29 16:21:21;;;;;;;;;;;;;;;;;;5016503;28;19910;-77
2023/04/29 16:23:47;;;;;;;;;;;;;;;;;;5033824;28;20380;-77
2023/04/29 16:26:12;;;;;;;;;;;;;;;;;;5033743;28;19917;-77
2023/04/29 16:28:39;;;;;;;;;;;;;;;;;;5033892;28;19944;-76
2023/04/29 16:31:04;;;;;;;;;;;;;;;;;;5033597;28;19921;-77
2023/04/29 16:33:30;;;;;;;;;;;;;;;;;;5033683;28;19913;-77
2023/04/29 16:35:57;;;;;;;;;;;;;;;;;;5032906;28;19924;-76
2023/04/29 16:38:22;;;;;;;;;;;;;;;;;;5033605;28;19913;-77
2023/04/29 16:40:47;;;;;;;;;;;;;;;;;;5015684;28;19966;-77
2023/04/29 16:43:14;;;;;;;;;;;;;;;;;;5033646;28;19917;-77